EETN/TLL METAR and TAF weather

Enter ICAO airport designator
Station Type Date Time Source
EETN METAR 2019/06/16 06:20 UTC NOAA

EETN 160620Z 27006KT CAVOK 19/13 Q1016 NOSIG


Station Type Date Time Source
EETN Decoded METAR 2019/06/16 06:20 UTC NOAA

Tallinn, Estonia (EETN) 59-24N 024-49E 34M
Jun 16, 2019 - 02:20 AM EDT / 2019.06.16 0620 UTC
Wind: from the W (270 degrees) at 7 MPH (6 KT):0
Visibility: greater than 7 mile(s):0
Temperature: 66 F (19 C)
Dew Point: 55 F (13 C)
Relative Humidity: 68%
Pressure (altimeter): 30.00 in. Hg (1016 hPa)
ob: EETN 160620Z 27006KT CAVOK 19/13 Q1016 NOSIG
cycle: 6

Station Type Date Time Source
EETN TAF 2019/06/16 06:06 UTC NOAA

TAF TAF EETN 160505Z 1606/1706 26008KT CAVOK
TEMPO 1608/1615 31012KT

Example: see airport list